Time;durP1;ratioP1;P1;durP2;ratioP2;P2;SDS_P1;SDS_P2;PMS_P1;PMS_P2;Temp;Humidity;BMP_temperature;BMP_pressure;BME280_temperature;BME280_humidity;BME280_pressure;Samples;Min_cycle;Max_cycle;Signal;HPM_P1;HPM_P2
2023/12/03 00:00:30;;;;;;;0.57;0.40;;;25.90;99.90;;;;;;5069564;28;20212;-76
2023/12/03 00:03:01;;;;;;;0.57;0.40;;;25.90;99.90;;;;;;5069494;28;20230;-75
2023/12/03 00:05:31;;;;;;;1.02;0.50;;;26.00;99.90;;;;;;5061876;28;20208;-75
2023/12/03 00:08:02;;;;;;;0.57;0.35;;;26.10;99.90;;;;;;5064676;28;20192;-75
2023/12/03 00:10:33;;;;;;;0.60;0.40;;;26.20;99.90;;;;;;5069392;28;20197;-75
2023/12/03 00:13:06;;;;;;;2.08;0.40;;;26.30;99.90;;;;;;5065671;28;20284;-75
2023/12/03 00:15:37;;;;;;;0.70;0.40;;;26.40;99.90;;;;;;5063378;28;20280;-75
2023/12/03 00:18:07;;;;;;;0.98;0.55;;;26.40;99.90;;;;;;5067379;28;20201;-75
2023/12/03 00:20:38;;;;;;;1.92;0.40;;;26.40;99.90;;;;;;5065385;28;20213;-76
2023/12/03 00:23:09;;;;;;;1.10;0.50;;;26.40;99.90;;;;;;5063631;28;20283;-76
2023/12/03 00:25:40;;;;;;;2.97;0.93;;;26.50;99.90;;;;;;5069130;28;20665;-76
2023/12/03 00:28:12;;;;;;;39.80;12.45;;;26.50;99.90;;;;;;5073858;28;20204;-75
2023/12/03 00:30:43;;;;;;;144.48;41.28;;;26.60;99.90;;;;;;5067848;28;20218;-76
2023/12/03 00:33:14;;;;;;;9.13;2.92;;;26.80;99.90;;;;;;5071549;28;20250;-75
2023/12/03 00:35:45;;;;;;;4.68;2.08;;;26.90;99.90;;;;;;5065336;28;20552;-76
2023/12/03 00:38:16;;;;;;;2.88;1.33;;;26.80;99.90;;;;;;5057865;28;20567;-75
2023/12/03 00:40:47;;;;;;;3.08;1.00;;;26.70;99.90;;;;;;5060877;28;20601;-75
2023/12/03 00:43:19;;;;;;;2.80;0.90;;;26.70;99.90;;;;;;5072942;28;20203;-76
2023/12/03 00:45:51;;;;;;;4.32;0.90;;;26.50;99.90;;;;;;5069642;28;20649;-77
2023/12/03 00:48:22;;;;;;;2.30;0.90;;;26.50;99.90;;;;;;5068205;28;20202;-76
2023/12/03 00:50:53;;;;;;;3.17;0.70;;;26.50;99.90;;;;;;5064480;28;20205;-76
2023/12/03 00:53:24;;;;;;;2.40;0.75;;;26.40;99.90;;;;;;5063209;28;20204;-75
2023/12/03 00:55:54;;;;;;;0.57;0.50;;;26.40;99.90;;;;;;5075407;28;20201;-76
2023/12/03 00:58:27;;;;;;;1.15;0.60;;;26.40;99.90;;;;;;5074261;28;20602;-75
2023/12/03 01:00:58;;;;;;;4.25;0.70;;;26.40;99.90;;;;;;5064929;28;20598;-76
2023/12/03 01:03:29;;;;;;;1.92;0.60;;;26.40;99.90;;;;;;5059938;28;20575;-76
2023/12/03 01:06:01;;;;;;;1.75;0.63;;;26.40;99.90;;;;;;5060437;28;20204;-75
2023/12/03 01:08:32;;;;;;;1.75;0.60;;;26.30;99.90;;;;;;5057586;28;20233;-79
2023/12/03 01:11:05;;;;;;;2.17;0.65;;;26.30;99.90;;;;;;5065977;28;20654;-76
2023/12/03 01:13:38;;;;;;;2.00;0.63;;;26.20;99.90;;;;;;5056866;28;20272;-75
2023/12/03 01:16:16;;;;;;;2.25;0.52;;;26.20;99.90;;;;;;5054895;28;20189;-77
2023/12/03 01:18:47;;;;;;;1.83;0.55;;;26.10;99.90;;;;;;5066196;28;20188;-78
2023/12/03 01:21:18;;;;;;;1.45;0.55;;;26.10;99.90;;;;;;5059603;28;20209;-79
2023/12/03 01:23:49;;;;;;;0.88;0.50;;;26.00;99.90;;;;;;5067105;28;20195;-79
2023/12/03 01:26:20;;;;;;;1.95;0.60;;;26.00;99.90;;;;;;5058665;28;20185;-79
2023/12/03 01:28:54;;;;;;;3.22;0.50;;;26.00;99.90;;;;;;5053456;28;20192;-78
2023/12/03 01:31:24;;;;;;;1.33;1.00;;;26.00;99.90;;;;;;5054715;28;20204;-80
2023/12/03 01:33:55;;;;;;;1.63;0.60;;;26.00;99.90;;;;;;5053858;28;20590;-80
2023/12/03 01:36:26;;;;;;;1.75;0.60;;;25.90;99.90;;;;;;5054817;28;20190;-79
2023/12/03 01:38:57;;;;;;;1.55;0.70;;;25.90;99.90;;;;;;5055003;28;20194;-80
2023/12/03 01:41:27;;;;;;;1.52;0.60;;;25.80;99.90;;;;;;5053661;28;20213;-78
2023/12/03 01:44:00;;;;;;;1.25;0.47;;;25.80;99.90;;;;;;5055079;28;20229;-77
2023/12/03 01:46:31;;;;;;;1.08;0.57;;;25.90;99.90;;;;;;5054794;28;20192;-78
2023/12/03 01:49:01;;;;;;;3.03;0.60;;;25.90;99.90;;;;;;5054571;28;20594;-78
2023/12/03 01:51:32;;;;;;;1.42;0.65;;;25.90;99.90;;;;;;5054703;28;20576;-78
2023/12/03 01:54:03;;;;;;;1.58;0.50;;;25.90;99.90;;;;;;5055019;28;20300;-78
2023/12/03 01:56:33;;;;;;;1.75;0.50;;;25.80;99.90;;;;;;5054743;28;20717;-77
2023/12/03 01:59:06;;;;;;;1.23;0.70;;;25.80;99.90;;;;;;5054639;28;20201;-79
2023/12/03 02:01:37;;;;;;;2.42;0.70;;;25.80;99.90;;;;;;5054589;28;20221;-78
2023/12/03 02:04:08;;;;;;;1.00;0.50;;;25.80;99.90;;;;;;5054363;28;20321;-77
2023/12/03 02:06:38;;;;;;;0.90;0.50;;;25.80;99.90;;;;;;5054456;28;20199;-78
2023/12/03 02:09:10;;;;;;;3.15;0.50;;;25.70;99.90;;;;;;5054341;28;20200;-81
2023/12/03 02:11:40;;;;;;;1.38;0.50;;;25.60;99.90;;;;;;5054391;28;20641;-79
2023/12/03 02:14:13;;;;;;;1.33;0.47;;;25.70;99.90;;;;;;5054270;28;20194;-79
2023/12/03 02:16:48;;;;;;;1.30;0.50;;;25.70;99.90;;;;;;5054069;28;20215;-80
2023/12/03 02:19:19;;;;;;;0.90;0.40;;;25.80;99.90;;;;;;5054130;28;20649;-80
2023/12/03 02:21:50;;;;;;;1.05;0.50;;;25.80;99.90;;;;;;5054025;28;20624;-80
2023/12/03 02:24:22;;;;;;;2.00;0.40;;;25.70;99.90;;;;;;5054142;28;20186;-78
2023/12/03 02:26:53;;;;;;;0.40;0.30;;;25.70;99.90;;;;;;5054063;28;20189;-79
2023/12/03 02:29:24;;;;;;;0.50;0.40;;;25.50;99.90;;;;;;5053959;28;20197;-80
2023/12/03 02:31:55;;;;;;;1.02;0.30;;;25.40;99.90;;;;;;5053900;28;20237;-79
2023/12/03 02:34:26;;;;;;;0.63;0.30;;;25.50;99.90;;;;;;5053776;28;20217;-79
2023/12/03 02:36:56;;;;;;;0.77;0.35;;;25.50;99.90;;;;;;5053858;28;20190;-79
2023/12/03 02:39:29;;;;;;;0.30;0.30;;;25.50;99.90;;;;;;5053654;28;20198;-80
2023/12/03 02:42:00;;;;;;;1.90;0.40;;;25.60;99.90;;;;;;5053727;28;20281;-79
2023/12/03 02:44:30;;;;;;;1.08;0.20;;;25.70;99.90;;;;;;5053703;28;20190;-79
2023/12/03 02:47:01;;;;;;;0.63;0.20;;;25.60;99.90;;;;;;5053760;28;20224;-77
2023/12/03 02:49:32;;;;;;;0.85;0.40;;;25.40;99.90;;;;;;5053593;28;20189;-78
2023/12/03 02:52:03;;;;;;;1.42;0.25;;;25.30;99.90;;;;;;5053596;28;20197;-77
2023/12/03 02:54:35;;;;;;;1.20;0.30;;;25.20;99.90;;;;;;5053506;28;20193;-78
2023/12/03 02:57:07;;;;;;;1.45;0.30;;;25.10;99.90;;;;;;5053453;28;20190;-80
2023/12/03 02:59:38;;;;;;;2.17;0.20;;;24.90;99.90;;;;;;5053406;28;20595;-77
2023/12/03 03:02:08;;;;;;;0.77;0.40;;;24.80;99.90;;;;;;5053268;28;20662;-77
2023/12/03 03:04:39;;;;;;;2.03;0.40;;;24.70;99.90;;;;;;5053465;28;20328;-78
2023/12/03 03:07:10;;;;;;;2.13;0.30;;;24.70;99.90;;;;;;5053360;28;20275;-79
2023/12/03 03:09:42;;;;;;;1.35;0.20;;;24.70;99.90;;;;;;5053361;28;20642;-77
2023/12/03 03:12:13;;;;;;;2.05;0.40;;;24.80;99.90;;;;;;5053369;28;20193;-79
2023/12/03 03:14:44;;;;;;;1.45;0.30;;;24.70;99.90;;;;;;5052929;28;20189;-78
2023/12/03 03:17:15;;;;;;;2.60;0.40;;;24.60;99.90;;;;;;5053327;28;20193;-78
2023/12/03 03:19:46;;;;;;;1.85;0.30;;;24.60;99.90;;;;;;5053377;28;20201;-78
2023/12/03 03:22:17;;;;;;;2.15;0.30;;;24.50;99.90;;;;;;5053358;28;20185;-78
2023/12/03 03:24:50;;;;;;;4.72;0.40;;;24.60;99.90;;;;;;5053316;28;20235;-77
2023/12/03 03:27:21;;;;;;;2.13;0.38;;;24.60;99.90;;;;;;5053133;28;20556;-77
2023/12/03 03:29:51;;;;;;;3.42;0.40;;;24.50;99.90;;;;;;5052941;28;20551;-80
2023/12/03 03:32:22;;;;;;;4.30;0.50;;;24.40;99.90;;;;;;5053138;28;20189;-77
2023/12/03 03:34:53;;;;;;;2.45;0.35;;;24.30;99.90;;;;;;5053149;28;20231;-80
2023/12/03 03:37:24;;;;;;;2.95;0.50;;;24.30;99.90;;;;;;5053299;28;20705;-77
2023/12/03 03:39:56;;;;;;;4.03;0.60;;;24.20;99.90;;;;;;5053022;28;20280;-81
2023/12/03 03:42:27;;;;;;;3.72;0.70;;;24.20;99.90;;;;;;5053072;28;20652;-79
2023/12/03 03:44:58;;;;;;;5.28;0.75;;;24.20;99.90;;;;;;5052896;28;20229;-80
2023/12/03 03:47:29;;;;;;;4.25;0.60;;;24.10;99.90;;;;;;5053029;28;20240;-78
2023/12/03 03:50:00;;;;;;;3.03;0.40;;;24.20;99.90;;;;;;5053047;28;20650;-79
2023/12/03 03:52:31;;;;;;;1.80;0.40;;;24.20;99.90;;;;;;5053067;28;20190;-77
2023/12/03 03:55:04;;;;;;;1.85;0.45;;;24.10;99.90;;;;;;5052925;28;20190;-79
2023/12/03 03:57:34;;;;;;;4.28;0.60;;;24.00;99.90;;;;;;5052892;28;20646;-79
2023/12/03 04:00:06;;;;;;;2.00;0.60;;;24.00;99.90;;;;;;5052707;28;20272;-77
2023/12/03 04:02:36;;;;;;;7.55;0.60;;;24.10;99.90;;;;;;5052733;28;20585;-79
2023/12/03 04:05:08;;;;;;;2.50;0.50;;;24.10;99.90;;;;;;5053109;28;20280;-78
2023/12/03 04:07:39;;;;;;;4.53;0.50;;;24.10;99.90;;;;;;5052806;28;20276;-78
2023/12/03 04:10:12;;;;;;;4.95;0.65;;;24.00;99.90;;;;;;5052836;28;20189;-80
2023/12/03 04:12:43;;;;;;;5.35;1.23;;;23.90;99.90;;;;;;5052671;28;20193;-79
2023/12/03 04:15:14;;;;;;;4.22;0.70;;;24.00;99.90;;;;;;5052759;28;20597;-82
2023/12/03 04:17:45;;;;;;;9.70;1.05;;;24.00;99.90;;;;;;5052660;28;20664;-80
2023/12/03 04:20:16;;;;;;;6.43;0.70;;;23.90;99.90;;;;;;5052763;28;20194;-78
2023/12/03 04:22:47;;;;;;;5.10;0.93;;;23.90;99.90;;;;;;5053019;28;20277;-78
2023/12/03 04:25:19;;;;;;;4.93;0.65;;;24.00;99.90;;;;;;5052789;28;20200;-77
2023/12/03 04:27:50;;;;;;;3.53;0.60;;;24.00;99.90;;;;;;5055598;28;20204;-79
2023/12/03 04:30:21;;;;;;;2.97;0.77;;;24.00;99.90;;;;;;5056242;28;20197;-79
2023/12/03 04:32:52;;;;;;;3.08;0.75;;;23.70;99.90;;;;;;5056622;28;20190;-76
2023/12/03 04:35:21;;;;;;;5.95;0.93;;;23.60;99.90;;;;;;5056166;28;20199;-77
2023/12/03 04:37:54;;;;;;;6.00;0.93;;;23.40;99.90;;;;;;5056058;28;20201;-80
2023/12/03 04:40:26;;;;;;;5.03;0.75;;;23.40;99.90;;;;;;5056245;28;20274;-78
2023/12/03 04:42:57;;;;;;;4.35;1.00;;;23.50;99.90;;;;;;5055817;28;20200;-78
2023/12/03 04:45:28;;;;;;;6.82;0.75;;;23.40;99.90;;;;;;5056018;28;20281;-78
2023/12/03 04:47:59;;;;;;;4.70;0.57;;;23.50;99.90;;;;;;5055957;28;20186;-78
2023/12/03 04:50:29;;;;;;;4.85;0.70;;;23.40;99.90;;;;;;5055924;28;20741;-77
2023/12/03 04:53:00;;;;;;;4.85;0.95;;;23.40;99.90;;;;;;5055812;28;20190;-78
2023/12/03 04:55:33;;;;;;;4.80;1.17;;;23.20;99.90;;;;;;5055736;28;20541;-77
2023/12/03 04:58:03;;;;;;;3.92;0.90;;;23.20;99.90;;;;;;5055492;28;20197;-78
2023/12/03 05:00:34;;;;;;;4.25;0.85;;;23.00;99.90;;;;;;5055596;28;20204;-77
2023/12/03 05:03:05;;;;;;;4.68;1.30;;;23.00;99.90;;;;;;5055602;28;20233;-78
2023/12/03 05:05:36;;;;;;;5.13;1.08;;;23.10;99.90;;;;;;5055585;28;20525;-77
2023/12/03 05:08:07;;;;;;;2.95;0.63;;;23.00;99.90;;;;;;5056064;28;20190;-77
2023/12/03 05:10:40;;;;;;;5.38;1.25;;;23.00;99.90;;;;;;5055378;28;20186;-79
2023/12/03 05:13:11;;;;;;;3.75;0.80;;;23.00;99.90;;;;;;5055465;28;20327;-78
2023/12/03 05:15:42;;;;;;;5.53;0.90;;;23.10;99.90;;;;;;5055367;28;20202;-76
2023/12/03 05:18:12;;;;;;;4.65;0.80;;;23.00;99.90;;;;;;5055426;28;20196;-79
2023/12/03 05:20:43;;;;;;;6.47;1.10;;;22.90;99.90;;;;;;5055291;28;20221;-77
2023/12/03 05:23:14;;;;;;;3.00;0.70;;;23.00;99.90;;;;;;5055320;28;20196;-77
2023/12/03 05:25:47;;;;;;;4.45;0.75;;;23.20;99.90;;;;;;5055119;28;20190;-77
2023/12/03 05:28:17;;;;;;;3.90;0.60;;;23.30;99.90;;;;;;5055275;28;20186;-77
2023/12/03 05:30:48;;;;;;;5.38;0.80;;;23.40;99.90;;;;;;5055174;28;20280;-79
2023/12/03 05:33:19;;;;;;;2.85;0.52;;;23.60;99.90;;;;;;5055007;28;20233;-79
2023/12/03 05:35:50;;;;;;;2.17;0.50;;;23.70;99.90;;;;;;5055061;28;20683;-78
2023/12/03 05:38:21;;;;;;;1.50;0.40;;;23.90;99.90;;;;;;5054949;28;20267;-77
2023/12/03 05:40:53;;;;;;;2.92;0.55;;;23.90;99.90;;;;;;5054682;28;20693;-78
2023/12/03 05:43:24;;;;;;;3.75;0.50;;;24.00;99.90;;;;;;5054968;28;20194;-78
2023/12/03 05:45:55;;;;;;;2.78;0.80;;;24.10;99.90;;;;;;5054955;28;20200;-81
2023/12/03 05:48:25;;;;;;;3.60;0.52;;;24.00;99.90;;;;;;5054888;28;20190;-78
2023/12/03 05:50:56;;;;;;;2.53;0.50;;;24.00;99.90;;;;;;5054757;28;20194;-79
2023/12/03 05:53:27;;;;;;;3.55;0.80;;;23.90;99.90;;;;;;5054750;28;20190;-80
2023/12/03 05:56:00;;;;;;;4.25;0.70;;;23.80;99.90;;;;;;5054705;28;20200;-76
2023/12/03 05:58:30;;;;;;;5.65;0.98;;;23.80;99.90;;;;;;5054523;28;20196;-79
2023/12/03 06:01:01;;;;;;;3.58;0.73;;;23.80;99.90;;;;;;5054469;28;20210;-78
2023/12/03 06:03:32;;;;;;;5.35;0.82;;;23.80;99.90;;;;;;5054400;28;20233;-79
2023/12/03 06:06:03;;;;;;;5.82;0.90;;;23.70;99.90;;;;;;5054748;28;20642;-79
2023/12/03 06:08:34;;;;;;;9.32;1.52;;;23.70;99.90;;;;;;5054515;28;20189;-80
2023/12/03 06:11:06;;;;;;;6.07;0.90;;;23.70;99.90;;;;;;5054424;28;20204;-78
2023/12/03 06:13:37;;;;;;;5.10;0.80;;;23.70;99.90;;;;;;5054343;28;20189;-77
2023/12/03 06:16:09;;;;;;;4.40;0.90;;;23.60;99.90;;;;;;5054279;28;20558;-78
2023/12/03 06:18:39;;;;;;;8.68;1.10;;;23.50;99.90;;;;;;5054277;28;20200;-79
2023/12/03 06:21:11;;;;;;;4.85;1.20;;;23.40;99.90;;;;;;5054114;28;20307;-77
2023/12/03 06:23:42;;;;;;;5.35;1.05;;;23.30;99.90;;;;;;5053977;28;20193;-79
2023/12/03 06:26:15;;;;;;;3.63;0.90;;;23.10;99.90;;;;;;5054063;28;20196;-79
2023/12/03 06:28:46;;;;;;;5.53;0.90;;;22.90;99.90;;;;;;5053966;28;20196;-80
2023/12/03 06:31:17;;;;;;;4.05;0.60;;;22.80;99.90;;;;;;5054000;28;20198;-82
2023/12/03 06:33:48;;;;;;;3.55;0.68;;;22.70;99.90;;;;;;5054295;28;20225;-79
2023/12/03 06:36:19;;;;;;;3.05;0.80;;;22.70;99.90;;;;;;5053989;28;20190;-78
2023/12/03 06:38:49;;;;;;;4.03;0.90;;;22.70;99.90;;;;;;5053724;28;20199;-80
2023/12/03 06:41:22;;;;;;;4.53;1.00;;;22.70;99.90;;;;;;5053911;28;20227;-78
2023/12/03 06:43:53;;;;;;;0.98;0.40;;;22.70;99.90;;;;;;5053820;28;20189;-79
2023/12/03 06:46:24;;;;;;;5.75;0.70;;;22.70;99.90;;;;;;5053735;28;20560;-79
2023/12/03 06:48:54;;;;;;;2.40;0.60;;;22.70;99.90;;;;;;5053457;28;20229;-78
2023/12/03 06:51:25;;;;;;;3.75;0.80;;;22.60;99.90;;;;;;5053723;28;20552;-76
2023/12/03 06:53:56;;;;;;;1.92;0.70;;;22.60;99.90;;;;;;5053352;28;20553;-76
2023/12/03 06:56:29;;;;;;;2.63;0.75;;;22.50;99.90;;;;;;5053581;28;20208;-77
2023/12/03 06:59:00;;;;;;;4.40;0.75;;;22.40;99.90;;;;;;5053791;28;20717;-80
2023/12/03 07:01:30;;;;;;;5.15;0.80;;;22.40;99.90;;;;;;5053349;28;20270;-79
2023/12/03 07:04:01;;;;;;;2.72;0.55;;;22.40;99.90;;;;;;5053367;28;20697;-79
2023/12/03 07:06:32;;;;;;;4.50;0.70;;;22.30;99.90;;;;;;5053206;28;20611;-77
2023/12/03 07:09:03;;;;;;;2.50;0.60;;;22.20;99.90;;;;;;5053276;28;20194;-81
2023/12/03 07:11:35;;;;;;;2.58;0.88;;;22.10;99.90;;;;;;5053288;28;20193;-77
2023/12/03 07:14:06;;;;;;;3.10;0.90;;;22.10;99.90;;;;;;5053387;28;20611;-81
2023/12/03 07:16:37;;;;;;;2.08;0.70;;;22.00;99.90;;;;;;5053512;28;20186;-79
2023/12/03 07:19:10;;;;;;;2.78;0.50;;;21.90;99.90;;;;;;5053212;28;20190;-81
2023/12/03 07:21:41;;;;;;;4.38;0.88;;;21.90;99.90;;;;;;5053041;28;20222;-80
2023/12/03 07:24:12;;;;;;;5.85;1.00;;;21.80;99.90;;;;;;5053266;28;20197;-80
2023/12/03 07:26:46;;;;;;;2.65;0.77;;;21.80;99.90;;;;;;5053489;28;20193;-80
2023/12/03 07:29:19;;;;;;;7.63;1.10;;;21.70;99.90;;;;;;5053096;28;20189;-81
2023/12/03 07:31:50;;;;;;;7.00;1.00;;;21.70;99.90;;;;;;5053296;28;20193;-80
2023/12/03 07:34:21;;;;;;;3.85;1.10;;;21.60;99.90;;;;;;5052959;28;20317;-77
2023/12/03 07:36:52;;;;;;;3.75;1.00;;;21.30;99.90;;;;;;5053418;28;20551;-77
2023/12/03 07:39:25;;;;;;;6.78;0.90;;;21.10;99.90;;;;;;5053078;28;20244;-82
2023/12/03 07:42:00;;;;;;;5.45;1.15;;;20.90;99.90;;;;;;5053193;28;20217;-83
2023/12/03 07:44:31;;;;;;;3.55;0.90;;;20.90;99.90;;;;;;5053041;28;20193;-83
2023/12/03 07:47:02;;;;;;;4.50;1.23;;;20.70;99.90;;;;;;5053027;28;20198;-82
2023/12/03 07:49:33;;;;;;;4.85;1.50;;;20.60;99.90;;;;;;5052908;28;20190;-82
2023/12/03 07:52:04;;;;;;;5.75;1.00;;;20.50;99.90;;;;;;5052687;28;20223;-84
2023/12/03 07:54:35;;;;;;;5.88;1.20;;;20.50;99.90;;;;;;5052918;28;20247;-82
2023/12/03 07:57:08;;;;;;;5.43;1.20;;;20.50;99.90;;;;;;5052876;28;20189;-82
2023/12/03 07:59:38;;;;;;;4.97;0.98;;;20.50;99.90;;;;;;5053013;28;20186;-83
2023/12/03 08:02:09;;;;;;;4.40;0.88;;;20.40;99.90;;;;;;5056904;28;20216;-81
2023/12/03 08:04:40;;;;;;;5.13;0.93;;;20.40;99.90;;;;;;5056505;28;20237;-83
2023/12/03 08:07:11;;;;;;;3.75;1.00;;;20.40;99.90;;;;;;5056619;28;20202;-82
2023/12/03 08:09:41;;;;;;;7.53;1.08;;;20.40;99.90;;;;;;5056740;28;20194;-83
2023/12/03 08:12:14;;;;;;;5.80;1.08;;;20.40;99.90;;;;;;5056588;28;20205;-81
2023/12/03 08:14:45;;;;;;;5.78;1.30;;;20.40;99.90;;;;;;5056652;28;20548;-83
2023/12/03 08:17:16;;;;;;;4.00;0.82;;;20.40;99.90;;;;;;5056456;28;20269;-83
2023/12/03 08:19:47;;;;;;;4.78;0.70;;;20.40;99.90;;;;;;5056507;28;20190;-85
2023/12/03 08:22:18;;;;;;;4.03;0.65;;;20.40;99.90;;;;;;5056551;28;20633;-83
2023/12/03 08:24:50;;;;;;;3.42;0.80;;;20.40;99.90;;;;;;5056525;28;20185;-83
2023/12/03 08:27:23;;;;;;;3.13;0.73;;;20.40;99.90;;;;;;5056329;28;20280;-81
2023/12/03 08:29:54;;;;;;;3.90;0.90;;;20.40;99.90;;;;;;5056559;28;20204;-81
2023/12/03 08:32:24;;;;;;;8.55;0.90;;;20.40;99.90;;;;;;5056283;28;20261;-82
2023/12/03 08:34:55;;;;;;;2.88;0.75;;;20.50;99.90;;;;;;5056020;28;20225;-82
2023/12/03 08:37:26;;;;;;;3.47;0.65;;;20.50;99.90;;;;;;5056227;28;20196;-82
2023/12/03 08:39:57;;;;;;;6.28;0.93;;;20.50;99.90;;;;;;5056051;28;20280;-82
2023/12/03 08:42:33;;;;;;;4.70;0.82;;;20.50;99.90;;;;;;5056264;28;20218;-82
2023/12/03 08:45:04;;;;;;;4.95;0.65;;;20.50;99.90;;;;;;5055981;28;20193;-82
2023/12/03 08:47:35;;;;;;;4.97;0.82;;;20.50;99.90;;;;;;5056084;28;20186;-80
2023/12/03 08:50:07;;;;;;;2.63;0.88;;;20.50;99.90;;;;;;5055700;28;20194;-83
2023/12/03 08:52:38;;;;;;;2.75;0.70;;;20.40;99.90;;;;;;5056229;28;20186;-82
2023/12/03 08:55:09;;;;;;;4.90;0.80;;;20.40;99.90;;;;;;5055769;28;20288;-83
2023/12/03 08:57:42;;;;;;;4.22;0.70;;;20.40;99.90;;;;;;5055785;28;20190;-82
2023/12/03 09:00:15;;;;;;;3.33;1.10;;;20.40;99.90;;;;;;5055981;28;20588;-83
2023/12/03 09:02:47;;;;;;;5.72;0.98;;;20.40;99.90;;;;;;5055302;28;20599;-83
2023/12/03 09:05:18;;;;;;;5.53;0.90;;;20.30;99.90;;;;;;5055691;28;20660;-82
2023/12/03 09:07:49;;;;;;;7.78;1.00;;;20.30;99.90;;;;;;5055739;28;20547;-75
2023/12/03 09:10:20;;;;;;;2.35;0.60;;;20.20;99.90;;;;;;5055792;28;20193;-82
2023/12/03 09:12:52;;;;;;;3.03;0.60;;;20.20;99.90;;;;;;5054766;28;20189;-77
2023/12/03 09:15:31;;;;;;;4.32;0.90;;;20.10;99.90;;;;;;5055423;28;20190;-75
2023/12/03 09:18:01;;;;;;;3.10;0.70;;;20.10;99.90;;;;;;5055175;28;20658;-77
2023/12/03 09:20:32;;;;;;;2.40;0.55;;;20.10;99.90;;;;;;5055521;28;20194;-77
2023/12/03 09:23:03;;;;;;;3.72;0.70;;;20.10;99.90;;;;;;5055238;28;20226;-79
2023/12/03 09:25:34;;;;;;;4.13;0.63;;;20.10;99.90;;;;;;5055332;28;20272;-79
2023/12/03 09:28:07;;;;;;;4.57;0.80;;;20.10;99.90;;;;;;5055139;28;20192;-79
2023/12/03 09:30:37;;;;;;;5.93;0.70;;;20.10;99.90;;;;;;5055325;28;20272;-82
2023/12/03 09:33:08;;;;;;;4.53;0.63;;;20.10;99.90;;;;;;5055178;28;20222;-80
2023/12/03 09:35:39;;;;;;;5.53;0.85;;;20.10;99.90;;;;;;5055246;28;20208;-80
2023/12/03 09:38:10;;;;;;;4.07;0.70;;;20.10;99.90;;;;;;5054974;28;20189;-80
2023/12/03 09:40:41;;;;;;;4.32;0.80;;;20.00;99.90;;;;;;5055064;28;20225;-81
2023/12/03 09:43:16;;;;;;;2.45;0.70;;;20.10;99.90;;;;;;5055112;28;20227;-80
2023/12/03 09:45:51;;;;;;;4.20;1.23;;;20.10;99.90;;;;;;5055045;28;20193;-81
2023/12/03 09:48:24;;;;;;;3.47;0.70;;;20.20;99.90;;;;;;5054615;28;20193;-78
2023/12/03 09:50:57;;;;;;;2.83;0.60;;;20.20;99.90;;;;;;5054873;28;20229;-82
2023/12/03 09:53:32;;;;;;;5.55;0.98;;;20.20;99.90;;;;;;5054774;28;20198;-80
2023/12/03 09:56:04;;;;;;;4.80;0.88;;;20.20;99.90;;;;;;5054750;28;20190;-77
2023/12/03 09:58:36;;;;;;;2.85;0.70;;;20.30;99.90;;;;;;5054593;28;20200;-82
2023/12/03 10:01:10;;;;;;;3.50;0.70;;;20.20;99.90;;;;;;5054452;28;20201;-80
2023/12/03 10:03:44;;;;;;;3.58;0.50;;;20.30;99.90;;;;;;5054292;28;20601;-81
2023/12/03 10:06:16;;;;;;;6.88;0.75;;;20.20;99.90;;;;;;5054486;28;20190;-82
2023/12/03 10:08:47;;;;;;;4.65;0.80;;;20.30;99.90;;;;;;5054400;28;20197;-81
2023/12/03 10:11:21;;;;;;;4.10;0.73;;;20.20;99.90;;;;;;5054333;28;20639;-82
2023/12/03 10:13:56;;;;;;;3.00;0.60;;;20.20;99.90;;;;;;5054418;28;20190;-81
2023/12/03 10:16:27;;;;;;;3.08;0.68;;;20.20;99.90;;;;;;5054098;28;20284;-81
2023/12/03 10:18:58;;;;;;;4.88;0.65;;;20.20;99.90;;;;;;5054242;28;20233;-81
2023/12/03 10:21:29;;;;;;;3.45;0.65;;;20.10;99.90;;;;;;5054580;28;20638;-81
2023/12/03 10:24:05;;;;;;;3.88;0.70;;;20.20;99.90;;;;;;5053067;28;20272;-80
2023/12/03 10:26:36;;;;;;;2.58;0.70;;;20.20;99.90;;;;;;5054075;28;20642;-78
2023/12/03 10:29:10;;;;;;;3.92;0.50;;;20.10;99.90;;;;;;5054177;28;20646;-81
2023/12/03 10:31:39;;;;;;;2.50;0.60;;;20.10;99.90;;;;;;5053832;28;20196;-80
2023/12/03 10:34:10;;;;;;;4.07;0.75;;;20.10;99.90;;;;;;5053882;28;20217;-80
2023/12/03 10:36:44;;;;;;;2.83;0.65;;;20.10;99.90;;;;;;5054193;28;20200;-79
2023/12/03 10:39:17;;;;;;;3.22;0.70;;;20.10;99.90;;;;;;5053854;28;20193;-80
2023/12/03 10:41:49;;;;;;;2.38;0.47;;;20.10;99.90;;;;;;5053835;28;20290;-81
2023/12/03 10:44:24;;;;;;;5.18;0.80;;;20.10;99.90;;;;;;5053954;28;20747;-79
2023/12/03 10:46:55;;;;;;;1.63;0.50;;;20.20;99.90;;;;;;5053638;28;20669;-81
2023/12/03 10:49:29;;;;;;;5.55;0.47;;;20.20;99.90;;;;;;5053615;28;20551;-81
2023/12/03 10:52:04;;;;;;;2.97;0.47;;;20.20;99.90;;;;;;5053696;28;20275;-81
2023/12/03 10:54:35;;;;;;;3.60;0.70;;;20.20;99.90;;;;;;5053615;28;20571;-79
2023/12/03 10:57:08;;;;;;;3.33;0.80;;;20.20;99.90;;;;;;5053530;28;20190;-80
2023/12/03 10:59:47;;;;;;;6.70;0.70;;;20.20;99.90;;;;;;5053414;28;20196;-80
2023/12/03 11:02:21;;;;;;;4.00;0.73;;;20.20;99.90;;;;;;5053837;28;20221;-81
2023/12/03 11:04:57;;;;;;;3.45;0.60;;;20.20;99.90;;;;;;5053541;28;20280;-81
2023/12/03 11:07:30;;;;;;;4.03;0.70;;;20.20;99.90;;;;;;5053410;28;20193;-81
2023/12/03 11:10:01;;;;;;;6.07;0.95;;;20.20;99.90;;;;;;5053588;28;20661;-80
2023/12/03 11:12:32;;;;;;;3.28;0.50;;;20.20;99.90;;;;;;5053609;28;20196;-80
2023/12/03 11:15:06;;;;;;;2.67;0.70;;;20.20;99.90;;;;;;5053178;28;20193;-76
2023/12/03 11:17:40;;;;;;;2.08;0.50;;;20.20;99.90;;;;;;5053267;28;20192;-77
2023/12/03 11:20:15;;;;;;;4.90;0.80;;;20.20;99.90;;;;;;5054009;28;20637;-80
2023/12/03 11:23:05;;;;;;;2.10;0.60;;;20.20;99.90;;;;;;5054697;28;20672;-79
2023/12/03 11:25:39;;;;;;;3.15;0.70;;;20.20;99.90;;;;;;5054497;28;20196;-80
2023/12/03 11:28:11;;;;;;;2.78;0.80;;;20.20;99.90;;;;;;5053572;28;20277;-81
2023/12/03 11:30:44;;;;;;;2.60;0.60;;;20.20;99.90;;;;;;5053313;28;20200;-81
2023/12/03 11:33:16;;;;;;;5.57;0.63;;;20.10;99.90;;;;;;5053587;28;20311;-81
2023/12/03 11:35:49;;;;;;;4.47;0.65;;;20.10;99.90;;;;;;5055265;28;20200;-81
2023/12/03 11:38:32;;;;;;;3.60;0.55;;;20.10;99.90;;;;;;5057280;28;20186;-81
2023/12/03 11:41:04;;;;;;;4.40;0.70;;;20.10;99.90;;;;;;5057281;28;20200;-80
2023/12/03 11:43:35;;;;;;;4.30;1.13;;;20.10;99.90;;;;;;5056988;28;20231;-81
2023/12/03 11:46:08;;;;;;;4.90;0.80;;;20.10;99.90;;;;;;5057158;28;20204;-81
2023/12/03 11:48:40;;;;;;;5.13;0.70;;;20.10;99.90;;;;;;5057021;28;20228;-80
2023/12/03 11:51:12;;;;;;;3.65;0.63;;;20.10;99.90;;;;;;5057668;28;20189;-80
2023/12/03 11:53:55;;;;;;;3.03;0.55;;;20.10;99.90;;;;;;5057065;28;20194;-81
2023/12/03 11:56:27;;;;;;;4.70;0.60;;;20.10;99.90;;;;;;5056969;28;20641;-81
2023/12/03 11:58:58;;;;;;;2.70;0.80;;;20.10;99.90;;;;;;5057403;28;20202;-80
2023/12/03 12:01:32;;;;;;;2.08;0.63;;;20.10;99.90;;;;;;5056902;28;20267;-81
2023/12/03 12:04:02;;;;;;;5.38;0.82;;;20.10;99.90;;;;;;5056578;28;20241;-81
2023/12/03 12:06:34;;;;;;;6.45;0.73;;;20.10;99.90;;;;;;5056793;28;20186;-82
2023/12/03 12:09:13;;;;;;;3.65;0.50;;;20.10;99.90;;;;;;5056675;28;20197;-80
2023/12/03 12:11:44;;;;;;;4.47;0.82;;;20.10;99.90;;;;;;5056566;28;20189;-80
2023/12/03 12:14:15;;;;;;;2.15;0.60;;;20.10;99.90;;;;;;5056697;28;20190;-80
2023/12/03 12:16:48;;;;;;;3.40;0.50;;;20.10;99.90;;;;;;5056517;28;20225;-81
2023/12/03 12:19:19;;;;;;;1.38;0.50;;;20.00;99.90;;;;;;5056536;28;20189;-80
2023/12/03 12:21:57;;;;;;;3.28;0.70;;;20.00;99.90;;;;;;5056535;28;20185;-81
2023/12/03 12:24:27;;;;;;;2.25;0.55;;;20.00;99.90;;;;;;5056683;28;20271;-81
2023/12/03 12:26:58;;;;;;;2.15;0.80;;;20.00;99.90;;;;;;5056175;28;20190;-81
2023/12/03 12:29:29;;;;;;;4.53;0.80;;;19.90;99.90;;;;;;5056657;28;20239;-80
2023/12/03 12:32:03;;;;;;;2.95;0.57;;;19.90;99.90;;;;;;5056378;28;20200;-78
2023/12/03 12:34:35;;;;;;;4.22;0.73;;;20.00;99.90;;;;;;5056326;28;20312;-79
2023/12/03 12:37:07;;;;;;;3.05;0.70;;;19.90;99.90;;;;;;5056320;28;20721;-80
2023/12/03 12:39:38;;;;;;;3.00;0.60;;;19.90;99.90;;;;;;5056187;28;20201;-81
2023/12/03 12:42:09;;;;;;;2.67;0.80;;;19.90;99.90;;;;;;5055951;28;20196;-80
2023/12/03 12:44:44;;;;;;;3.35;0.80;;;19.80;99.90;;;;;;5056113;28;20221;-79
2023/12/03 12:47:18;;;;;;;2.92;0.57;;;19.80;99.90;;;;;;5054806;28;20213;-79
2023/12/03 12:49:57;;;;;;;3.65;0.60;;;19.90;99.90;;;;;;5055988;28;20276;-80
2023/12/03 12:52:28;;;;;;;2.47;0.65;;;19.90;99.90;;;;;;5056194;28;20225;-80
2023/12/03 12:54:59;;;;;;;3.80;0.70;;;19.90;99.90;;;;;;5055689;28;20660;-79
2023/12/03 12:57:30;;;;;;;2.50;0.55;;;19.90;99.90;;;;;;5055829;28;20193;-76
2023/12/03 13:00:01;;;;;;;2.40;0.60;;;19.90;99.90;;;;;;5055791;28;20276;-78
2023/12/03 13:02:35;;;;;;;2.70;0.50;;;19.90;99.90;;;;;;5055672;28;20196;-79
2023/12/03 13:05:06;;;;;;;4.40;0.70;;;19.80;99.90;;;;;;5055857;28;20229;-77
2023/12/03 13:07:37;;;;;;;1.45;0.57;;;19.90;99.90;;;;;;5055670;28;20194;-76